• Join FlightAware (Why Join?)
  • Login
  • US Flag 
12:10PM EDT


 

Airport Tracker/Info


-or-


 

Live Flight TrackerFlight Track Log ✈ SWA896 ✈ 16-Mar-2014 ✈ KLGA - KATL

Flight Track Log - Related Links

Times and Time Zones

All times are in EDT time to prevent confusion due to time zone crossing. See the SWA896 flight status page for this flight to view local times or setup timezone preferences in your user account.

Time Position Orientation Groundspeed Altitude Reporting Facility
EDT Latitude Longitude Course Direction KTS MPH feet Rate Location/Type
09:00AM 40.8167 -73.9167 259° West 178 205 3,100  Level New York TRACON
09:01AM 40.8667 -73.9500 333° Northwest 186 214 5,500 2,940 Climbing New York TRACON
09:02AM 40.9000 -74.0000 311° West 231 266 8,400 1,740 Climbing New York TRACON
09:03AM 40.9000 -74.0667 270° West 218 251 9,000 300 Climbing New York TRACON
09:04AM 40.8833 -74.1500 255° West 218 251 9,100 1,500 Climbing New York TRACON
09:05AM 40.8500 -74.2167 237° Southwest 227 261 12,100 3,180 Climbing New York TRACON
09:06AM 40.6396 -74.5763 259° West  Level FlightAware Approximate
09:06AM 40.8667 -74.3000 285° West 236 272 15,500  Level New York TRACON
09:08AM 40.8261 -74.4842 254° West 271 312 17,300 1,320 Climbing New York Center
09:09AM 40.7794 -74.5747 236° Southwest 303 349 19,500 2,460 Climbing New York Center
09:10AM 40.7325 -74.6789 239° Southwest 327 376 22,300 2,880 Climbing New York Center
09:11AM 40.6811 -74.7800 236° Southwest 336 387 25,400 2,220 Climbing New York Center
09:12AM 40.6294 -74.8836 237° Southwest 336 387 26,800 1,320 Climbing New York Center
09:13AM 40.5733 -74.9978 237° Southwest 357 411 28,100 2,160 Climbing New York Center
09:14AM 40.5111 -75.1086 234° Southwest 369 425 31,200 2,760 Climbing New York Center
09:15AM 40.4514 -75.2031 230° Southwest 363 418 33,600 1,800 Climbing New York Center
09:16AM 40.3892 -75.2997 230° Southwest 351 404 34,900 1,260 Climbing New York Center
09:17AM 40.3292 -75.3967 231° Southwest 351 404 36,100 1,080 Climbing New York Center
09:18AM 40.2669 -75.4958 231° Southwest 351 404 37,100 780 Climbing New York Center
09:19AM 40.2067 -75.5950 232° Southwest 357 411 37,700 420 Climbing New York Center
09:20AM 40.1519 -75.7053 237° Southwest 362 417 38,000 120 Climbing New York Center
09:21AM 40.0972 -75.8156 237° Southwest 367 422 38,000  Level New York Center
09:22AM 40.0303 -75.9192 230° Southwest 372 428 38,000  Level New York Center
09:23AM 39.9653 -76.0253 231° Southwest 372 428 38,000  Level New York Center
09:24AM 39.9003 -76.1233 229° Southwest 377 434 38,000  Level New York Center
09:25AM 39.8308 -76.2314 230° Southwest 382 440 38,000  Level New York Center
09:27AM 39.6750 -76.4678 229° Southwest 373 429 38,000  Level Washington Center
09:28AM 39.6117 -76.5667 230° Southwest 373 429 38,000  Level Washington Center
09:29AM 39.5483 -76.6653 230° Southwest 373 429 38,000  Level Washington Center
09:31AM 39.4850 -76.7611 229° Southwest 368 423 38,000  Level Washington Center
09:31AM 39.4214 -76.8594 230° Southwest 363 418 38,000  Level Washington Center
09:32AM 39.3558 -76.9550 228° Southwest 363 418 38,000  Level Washington Center
09:33AM 39.2942 -77.0531 231° Southwest 358 412 38,000  Level Washington Center
09:35AM 39.2328 -77.1483 230° Southwest 358 412 38,000 -180 Level Washington Center
09:35AM 39.1667 -77.2461 229° Southwest 358 412 37,700 -840 Descending Washington Center
09:36AM 39.1072 -77.3383 230° Southwest 353 406 36,400 -1,200 Descending Washington Center
09:37AM 39.0517 -77.4200 229° Southwest 339 390 35,400 -1,020 Descending Washington Center
09:38AM 38.9983 -77.5014 230° Southwest 320 368 34,400 -720 Descending Washington Center
09:40AM 38.9428 -77.5853 230° Southwest 308 354 34,000 -240 Descending Washington Center
09:41AM 38.8914 -77.6639 230° Southwest 308 354 34,000  Level Washington Center
09:41AM 38.8358 -77.7450 229° Southwest 320 368 34,000  Level Washington Center
09:42AM 38.7672 -77.8469 229° Southwest 339 390 34,000  Level Washington Center
09:43AM 38.7050 -77.9381 229° Southwest 344 396 34,000  Level Washington Center
09:45AM 38.6447 -78.0264 229° Southwest 344 396 34,000  Level Washington Center
09:45AM 38.5847 -78.1175 230° Southwest 344 396 34,000  Level Washington Center
09:46AM 38.5222 -78.2056 228° Southwest 344 396 34,000  Level Washington Center
09:48AM 38.4619 -78.2964 230° Southwest 344 396 34,000  Level Washington Center
09:49AM 38.3994 -78.3867 229° Southwest 344 396 34,000  Level Washington Center
09:49AM 38.3389 -78.4772 230° Southwest 344 396 34,000  Level Washington Center
09:50AM 38.2761 -78.5672 228° Southwest 344 396 34,000  Level Washington Center
09:51AM 38.2175 -78.6575 230° Southwest 344 396 34,000  Level Washington Center
09:53AM 38.1569 -78.7475 229° Southwest 344 396 34,000  Level Washington Center
09:54AM 38.0939 -78.8397 229° Southwest 344 396 34,000  Level Washington Center
09:54AM 38.0331 -78.9267 228° Southwest 350 403 34,000  Level Washington Center
09:55AM 37.9636 -79.0264 229° Southwest 344 396 34,000  Level Washington Center
09:56AM 37.8983 -79.1156 227° Southwest 349 402 34,000  Level Washington Center
09:57AM 37.8372 -79.2047 229° Southwest 349 402 34,000  Level Washington Center
09:58AM 37.7764 -79.2833 226° Southwest 349 402 34,000  Level Washington Center
10:00AM 37.7047 -79.3794 227° Southwest 349 402 34,000  Level Washington Center
10:01AM 37.6392 -79.4681 227° Southwest 354 407 34,000  Level Washington Center
10:01AM 37.5781 -79.5567 229° Southwest 354 407 34,000  Level Washington Center
10:02AM 37.5103 -79.6472 227° Southwest 354 407 34,000  Level Washington Center
10:04AM 37.4469 -79.7328 227° Southwest 354 407 34,000  Level Washington Center
10:04AM 37.3875 -79.8186 229° Southwest 362 417 34,000  Level Washington Center
10:06AM 37.2692 -79.9758 227° Southwest 353 406 34,000  Level Atlanta Center
10:07AM 37.1972 -80.0706 226° Southwest 346 398 34,000  Level Atlanta Center
10:08AM 37.1314 -80.1600 227° Southwest 346 398 34,000  Level Atlanta Center
10:09AM 37.0672 -80.2464 227° Southwest 346 398 34,000  Level Atlanta Center
10:10AM 37.0033 -80.3325 227° Southwest 346 398 34,000  Level Atlanta Center
10:11AM 36.9453 -80.4106 227° Southwest 346 398 34,000  Level Atlanta Center
10:12AM 36.8831 -80.4964 228° Southwest 346 398 34,000  Level Atlanta Center
10:13AM 36.8147 -80.5850 226° Southwest 346 398 34,000  Level Atlanta Center
10:14AM 36.7464 -80.6761 227° Southwest 346 398 34,000  Level Atlanta Center
10:15AM 36.6778 -80.7669 227° Southwest 346 398 34,000  Level Atlanta Center
10:16AM 36.6156 -80.8522 228° Southwest 346 398 34,000  Level Atlanta Center
10:17AM 36.5489 -80.9403 227° Southwest 346 398 34,000  Level Atlanta Center
10:18AM 36.4822 -81.0281 227° Southwest 352 405 34,000  Level Atlanta Center
10:19AM 36.4175 -81.1131 227° Southwest 352 405 34,000  Level Atlanta Center
10:20AM 36.3528 -81.2006 227° Southwest 352 405 34,000  Level Atlanta Center
10:21AM 36.2839 -81.2878 226° Southwest 352 405 34,000  Level Atlanta Center
10:22AM 36.2192 -81.3750 227° Southwest 352 405 34,000  Level Atlanta Center
10:23AM 36.1542 -81.4619 227° Southwest 352 405 34,000  Level Atlanta Center
10:24AM 36.0872 -81.5464 226° Southwest 352 405 34,000  Level Atlanta Center
10:25AM 36.0364 -81.6172 228° Southwest 352 405 34,000  Level Atlanta Center
10:26AM 35.9550 -81.7197 226° Southwest 352 405 34,000  Level Atlanta Center
10:27AM 35.8958 -81.7958 226° Southwest 352 405 34,000  Level Atlanta Center
10:28AM 35.8286 -81.8797 225° Southwest 352 405 34,000  Level Atlanta Center
10:29AM 35.7653 -81.9658 228° Southwest 349 402 34,000  Level Atlanta Center
10:30AM 35.6939 -82.0544 225° Southwest 349 402 34,000  Level Atlanta Center
10:31AM 35.6264 -82.1406 226° Southwest 354 407 34,000  Level Atlanta Center
10:32AM 35.5589 -82.2289 227° Southwest 354 407 34,000  Level Atlanta Center
10:33AM 35.4892 -82.3119 224° Southwest 354 407 34,000 -300 Level Atlanta Center
10:34AM 35.4236 -82.4000 228° Southwest 354 407 33,400 -840 Descending Atlanta Center
10:35AM 35.3536 -82.4828 224° Southwest 354 407 32,400 -960 Descending Atlanta Center
10:36AM 35.2819 -82.5733 226° Southwest 359 413 31,500 -960 Descending Atlanta Center
10:37AM 35.2139 -82.6558 225° Southwest 359 413 30,500 -1,020 Descending Atlanta Center
10:38AM 35.1439 -82.7433 226° Southwest 359 413 29,500 -960 Descending Atlanta Center
10:39AM 35.0717 -82.8231 222° Southwest 351 404 28,600 -1,080 Descending Atlanta Center
10:40AM 34.9869 -82.9081 219° Southwest 356 410 27,400 -1,020 Descending Atlanta Center
10:41AM 34.9167 -82.9825 221° Southwest 361 415 26,600 -900 Descending Atlanta Center
10:42AM 34.8400 -83.0569 219° Southwest 366 421 25,600 -1,020 Descending Atlanta Center
10:43AM 34.7656 -83.1361 221° Southwest 366 421 24,600 -1,020 Descending Atlanta Center
10:44AM 34.6889 -83.2153 220° Southwest 366 421 23,600 -1,020 Descending Atlanta Center
10:45AM 34.6122 -83.2967 221° Southwest 361 415 22,600 -1,020 Descending Atlanta Center
10:46AM 34.5375 -83.3756 221° Southwest 366 421 21,600 -1,020 Descending Atlanta Center
10:47AM 34.4650 -83.4517 221° Southwest 361 415 20,600 -1,020 Descending Atlanta Center
10:48AM 34.3858 -83.5353 221° Southwest 356 410 19,600 -1,020 Descending Atlanta Center
10:49AM 34.3131 -83.6061 219° Southwest 356 410 18,600 -1,080 Descending Atlanta Center
10:50AM 34.2425 -83.6794 221° Southwest 348 400 17,500 -1,140 Descending Atlanta Center
10:51AM 34.1717 -83.7500 220° Southwest 341 392 16,400 -1,680 Descending Atlanta Center
10:52AM 34.1072 -83.8231 223° Southwest 328 377 14,200 -1,200 Descending Atlanta Center
10:53AM 34.0447 -83.8883 221° Southwest 314 361 14,000 -120 Descending Atlanta Center
10:54AM 33.9883 -83.9511 223° Southwest 291 335 14,000  Level Atlanta Center
10:55AM 33.9217 -84.0036 213° Southwest 286 329 14,000  Level Atlanta Center
10:56AM 33.8569 -84.0489 210° Southwest 297 342 14,000  Level Atlanta Center
10:57AM 33.7858 -84.1014 212° Southwest 303 349 14,000  Level Atlanta Center
10:58AM 33.7336 -84.1611 224° Southwest 282 325 14,000 -360 Level Atlanta Center
10:59AM 33.7314 -84.2411 268° West 234 269 13,300 -1,140 Descending Atlanta Center
11:00AM 33.7292 -84.3311 268° West 243 280 11,800 -1,620 Descending Atlanta Center
11:02AM 33.7333 -84.4333 273° West 243 280 9,400 -1,680 Descending Atlanta TRACON
11:03AM 33.7333 -84.5167 270° West 235 270 7,800 -1,500 Descending Atlanta TRACON
11:04AM 33.7333 -84.6000 270° West 231 266 6,500 -1,200 Descending Atlanta TRACON
11:05AM 33.7333 -84.6667 270° West 229 264 5,500 -480 Descending Atlanta TRACON
11:06AM 33.7333 -84.7667 270° West 222 255 5,500  Level Atlanta TRACON
11:07AM 33.7333 -84.8333 270° West 207 238 5,500  Level Atlanta TRACON
11:08AM 33.7333 -84.9000 270° West 186 214 5,600  Climbing Atlanta TRACON
11:09AM 33.6833 -84.9000 180° South 206 237 5,500 -180 Descending Atlanta TRACON
11:10AM 33.6500 -84.8667 140° Southeast 214 246 5,300 -300 Descending Atlanta TRACON
11:11AM 33.6500 -84.7833 90° East 222 255 5,000 -180 Descending Atlanta TRACON
11:12AM 33.6500 -84.7167 90° East 224 258 5,000 -360 Level Atlanta TRACON
11:13AM 33.6500 -84.6333 90° East 231 266 4,300 -900 Descending Atlanta TRACON
11:14AM 33.6500 -84.5667 90° East 192 221 3,200 -960 Descending Atlanta TRACON
11:15AM 33.6500 -84.5167 90° East 144 166 2,400 -780 Descending Atlanta TRACON
11:16AM 33.6500 -84.4667 90° East 126 145 1,700 -720 Descending Atlanta TRACON
11:18AM 33.6367 -84.4279 103° East  Level Estimated